sensor_id;sensor_type;location;lat;lon;timestamp;P1;durP1;ratioP1;P2;durP2;ratioP2
20008;SDS011;10165;42.662;23.260;2023-12-04T00:01:56;1.97;;;1.73;;
20008;SDS011;10165;42.662;23.260;2023-12-04T00:04:24;5.43;;;2.20;;
20008;SDS011;10165;42.662;23.260;2023-12-04T00:06:51;3.63;;;2.20;;
20008;SDS011;10165;42.662;23.260;2023-12-04T00:09:19;2.30;;;2.13;;
20008;SDS011;10165;42.662;23.260;2023-12-04T00:11:46;1.53;;;1.40;;
20008;SDS011;10165;42.662;23.260;2023-12-04T00:14:14;4.23;;;2.10;;
20008;SDS011;10165;42.662;23.260;2023-12-04T00:16:41;1.20;;;1.20;;
20008;SDS011;10165;42.662;23.260;2023-12-04T00:19:09;2.47;;;1.77;;
20008;SDS011;10165;42.662;23.260;2023-12-04T00:21:36;1.70;;;1.60;;
20008;SDS011;10165;42.662;23.260;2023-12-04T00:24:04;2.50;;;1.77;;
20008;SDS011;10165;42.662;23.260;2023-12-04T00:26:31;1.90;;;1.40;;
20008;SDS011;10165;42.662;23.260;2023-12-04T00:28:59;1.10;;;1.10;;
20008;SDS011;10165;42.662;23.260;2023-12-04T00:31:27;2.10;;;1.80;;
20008;SDS011;10165;42.662;23.260;2023-12-04T00:33:55;3.30;;;2.00;;
20008;SDS011;10165;42.662;23.260;2023-12-04T00:36:22;3.10;;;1.50;;
20008;SDS011;10165;42.662;23.260;2023-12-04T00:38:50;2.87;;;2.07;;
20008;SDS011;10165;42.662;23.260;2023-12-04T00:41:17;6.93;;;2.47;;
20008;SDS011;10165;42.662;23.260;2023-12-04T00:43:45;3.13;;;1.80;;
20008;SDS011;10165;42.662;23.260;2023-12-04T00:46:12;3.47;;;2.60;;
20008;SDS011;10165;42.662;23.260;2023-12-04T00:48:40;1.60;;;1.43;;
20008;SDS011;10165;42.662;23.260;2023-12-04T00:51:07;2.30;;;2.10;;
20008;SDS011;10165;42.662;23.260;2023-12-04T00:53:34;1.73;;;1.63;;
20008;SDS011;10165;42.662;23.260;2023-12-04T00:56:02;2.20;;;1.43;;
20008;SDS011;10165;42.662;23.260;2023-12-04T00:58:29;4.53;;;2.93;;
20008;SDS011;10165;42.662;23.260;2023-12-04T01:00:57;4.53;;;3.53;;
20008;SDS011;10165;42.662;23.260;2023-12-04T01:03:24;2.13;;;1.60;;
20008;SDS011;10165;42.662;23.260;2023-12-04T01:05:53;4.00;;;2.17;;
20008;SDS011;10165;42.662;23.260;2023-12-04T01:08:20;1.80;;;1.70;;
20008;SDS011;10165;42.662;23.260;2023-12-04T01:10:49;4.30;;;2.10;;
20008;SDS011;10165;42.662;23.260;2023-12-04T01:13:17;1.87;;;1.67;;
20008;SDS011;10165;42.662;23.260;2023-12-04T01:15:44;1.57;;;1.47;;
20008;SDS011;10165;42.662;23.260;2023-12-04T01:18:13;2.83;;;1.60;;
20008;SDS011;10165;42.662;23.260;2023-12-04T01:20:41;1.77;;;1.40;;
20008;SDS011;10165;42.662;23.260;2023-12-04T01:23:08;4.20;;;1.53;;
20008;SDS011;10165;42.662;23.260;2023-12-04T01:25:36;2.90;;;1.87;;
20008;SDS011;10165;42.662;23.260;2023-12-04T01:28:03;2.13;;;1.97;;
20008;SDS011;10165;42.662;23.260;2023-12-04T01:30:31;1.83;;;1.27;;
20008;SDS011;10165;42.662;23.260;2023-12-04T01:32:58;1.47;;;1.37;;
20008;SDS011;10165;42.662;23.260;2023-12-04T01:35:27;1.70;;;1.60;;
20008;SDS011;10165;42.662;23.260;2023-12-04T01:37:55;4.60;;;2.53;;
20008;SDS011;10165;42.662;23.260;2023-12-04T01:40:23;1.87;;;1.77;;
20008;SDS011;10165;42.662;23.260;2023-12-04T01:42:50;2.20;;;1.60;;
20008;SDS011;10165;42.662;23.260;2023-12-04T01:45:18;2.43;;;2.00;;
20008;SDS011;10165;42.662;23.260;2023-12-04T01:47:46;3.63;;;2.60;;
20008;SDS011;10165;42.662;23.260;2023-12-04T01:50:14;6.40;;;2.77;;
20008;SDS011;10165;42.662;23.260;2023-12-04T01:52:43;2.43;;;2.23;;
20008;SDS011;10165;42.662;23.260;2023-12-04T01:55:10;3.40;;;2.40;;
20008;SDS011;10165;42.662;23.260;2023-12-04T01:57:38;2.67;;;2.00;;
20008;SDS011;10165;42.662;23.260;2023-12-04T02:00:05;1.93;;;1.70;;
20008;SDS011;10165;42.662;23.260;2023-12-04T02:02:38;1.87;;;1.77;;
20008;SDS011;10165;42.662;23.260;2023-12-04T02:05:07;2.00;;;1.77;;
20008;SDS011;10165;42.662;23.260;2023-12-04T02:07:40;1.57;;;1.47;;
20008;SDS011;10165;42.662;23.260;2023-12-04T02:10:19;1.80;;;1.47;;
20008;SDS011;10165;42.662;23.260;2023-12-04T02:14:07;4.53;;;2.77;;
20008;SDS011;10165;42.662;23.260;2023-12-04T02:18:02;2.47;;;2.10;;
20008;SDS011;10165;42.662;23.260;2023-12-04T02:21:54;1.57;;;1.47;;
20008;SDS011;10165;42.662;23.260;2023-12-04T02:25:39;3.97;;;2.23;;
20008;SDS011;10165;42.662;23.260;2023-12-04T02:29:18;2.80;;;1.60;;
20008;SDS011;10165;42.662;23.260;2023-12-04T02:33:12;2.63;;;2.13;;
20008;SDS011;10165;42.662;23.260;2023-12-04T02:36:48;5.47;;;2.10;;
20008;SDS011;10165;42.662;23.260;2023-12-04T02:39:17;2.37;;;2.17;;
20008;SDS011;10165;42.662;23.260;2023-12-04T02:41:45;1.67;;;1.50;;
20008;SDS011;10165;42.662;23.260;2023-12-04T02:44:12;6.17;;;2.10;;
20008;SDS011;10165;42.662;23.260;2023-12-04T02:46:40;2.03;;;1.77;;
20008;SDS011;10165;42.662;23.260;2023-12-04T02:49:07;2.10;;;1.90;;
20008;SDS011;10165;42.662;23.260;2023-12-04T02:51:35;2.83;;;2.47;;
20008;SDS011;10165;42.662;23.260;2023-12-04T02:54:02;1.90;;;1.80;;
20008;SDS011;10165;42.662;23.260;2023-12-04T02:56:29;2.27;;;1.67;;
20008;SDS011;10165;42.662;23.260;2023-12-04T02:58:57;3.50;;;2.73;;
20008;SDS011;10165;42.662;23.260;2023-12-04T03:01:25;2.43;;;1.93;;
20008;SDS011;10165;42.662;23.260;2023-12-04T03:03:52;2.33;;;2.13;;
20008;SDS011;10165;42.662;23.260;2023-12-04T03:06:20;7.77;;;2.03;;
20008;SDS011;10165;42.662;23.260;2023-12-04T03:08:48;4.07;;;1.60;;
20008;SDS011;10165;42.662;23.260;2023-12-04T03:11:16;1.87;;;1.70;;
20008;SDS011;10165;42.662;23.260;2023-12-04T03:13:44;4.07;;;2.07;;
20008;SDS011;10165;42.662;23.260;2023-12-04T03:16:14;2.63;;;2.37;;
20008;SDS011;10165;42.662;23.260;2023-12-04T03:18:45;1.63;;;1.53;;
20008;SDS011;10165;42.662;23.260;2023-12-04T03:21:13;2.67;;;2.17;;
20008;SDS011;10165;42.662;23.260;2023-12-04T03:23:40;2.47;;;1.77;;
20008;SDS011;10165;42.662;23.260;2023-12-04T03:26:08;2.47;;;1.87;;
20008;SDS011;10165;42.662;23.260;2023-12-04T03:28:36;2.57;;;1.67;;
20008;SDS011;10165;42.662;23.260;2023-12-04T03:31:05;1.53;;;1.27;;
20008;SDS011;10165;42.662;23.260;2023-12-04T03:33:32;3.33;;;2.50;;
20008;SDS011;10165;42.662;23.260;2023-12-04T03:36:00;2.03;;;1.63;;
20008;SDS011;10165;42.662;23.260;2023-12-04T03:38:29;3.83;;;1.73;;
20008;SDS011;10165;42.662;23.260;2023-12-04T03:40:58;1.50;;;1.27;;
20008;SDS011;10165;42.662;23.260;2023-12-04T03:43:25;3.17;;;2.00;;
20008;SDS011;10165;42.662;23.260;2023-12-04T03:45:58;2.50;;;1.60;;
20008;SDS011;10165;42.662;23.260;2023-12-04T03:48:26;2.00;;;1.80;;
20008;SDS011;10165;42.662;23.260;2023-12-04T03:50:57;1.20;;;1.20;;
20008;SDS011;10165;42.662;23.260;2023-12-04T03:53:28;1.93;;;1.63;;
20008;SDS011;10165;42.662;23.260;2023-12-04T03:55:59;2.57;;;1.50;;
20008;SDS011;10165;42.662;23.260;2023-12-04T03:58:26;1.60;;;1.43;;
20008;SDS011;10165;42.662;23.260;2023-12-04T04:01:01;1.60;;;1.50;;
20008;SDS011;10165;42.662;23.260;2023-12-04T04:03:29;2.93;;;2.43;;
20008;SDS011;10165;42.662;23.260;2023-12-04T04:05:57;3.20;;;2.47;;
20008;SDS011;10165;42.662;23.260;2023-12-04T04:08:24;2.10;;;1.90;;
20008;SDS011;10165;42.662;23.260;2023-12-04T04:10:54;1.63;;;1.53;;
20008;SDS011;10165;42.662;23.260;2023-12-04T04:13:21;4.63;;;2.10;;
20008;SDS011;10165;42.662;23.260;2023-12-04T04:15:49;2.40;;;2.17;;
20008;SDS011;10165;42.662;23.260;2023-12-04T04:18:18;0.87;;;0.87;;
20008;SDS011;10165;42.662;23.260;2023-12-04T04:20:47;1.93;;;1.83;;
20008;SDS011;10165;42.662;23.260;2023-12-04T04:23:18;2.20;;;1.77;;
20008;SDS011;10165;42.662;23.260;2023-12-04T04:25:46;1.53;;;1.43;;
20008;SDS011;10165;42.662;23.260;2023-12-04T04:28:13;1.63;;;1.47;;
20008;SDS011;10165;42.662;23.260;2023-12-04T04:30:48;2.20;;;1.57;;
20008;SDS011;10165;42.662;23.260;2023-12-04T04:33:15;2.13;;;1.40;;
20008;SDS011;10165;42.662;23.260;2023-12-04T04:35:46;2.27;;;1.67;;
20008;SDS011;10165;42.662;23.260;2023-12-04T04:38:13;2.80;;;1.70;;
20008;SDS011;10165;42.662;23.260;2023-12-04T04:40:41;2.00;;;1.80;;
20008;SDS011;10165;42.662;23.260;2023-12-04T04:43:09;2.33;;;1.80;;
20008;SDS011;10165;42.662;23.260;2023-12-04T04:45:38;1.67;;;1.47;;
20008;SDS011;10165;42.662;23.260;2023-12-04T04:48:08;3.63;;;1.90;;
20008;SDS011;10165;42.662;23.260;2023-12-04T04:50:36;3.53;;;1.67;;
20008;SDS011;10165;42.662;23.260;2023-12-04T04:53:03;1.53;;;1.43;;
20008;SDS011;10165;42.662;23.260;2023-12-04T04:55:30;1.93;;;1.77;;
20008;SDS011;10165;42.662;23.260;2023-12-04T04:58:14;2.23;;;1.93;;
20008;SDS011;10165;42.662;23.260;2023-12-04T05:00:43;1.33;;;1.27;;
20008;SDS011;10165;42.662;23.260;2023-12-04T05:03:14;1.30;;;1.20;;
20008;SDS011;10165;42.662;23.260;2023-12-04T05:05:42;1.93;;;1.33;;
20008;SDS011;10165;42.662;23.260;2023-12-04T05:08:09;1.20;;;1.07;;
20008;SDS011;10165;42.662;23.260;2023-12-04T05:10:38;1.53;;;1.43;;
20008;SDS011;10165;42.662;23.260;2023-12-04T05:13:05;2.10;;;1.57;;
20008;SDS011;10165;42.662;23.260;2023-12-04T05:15:34;2.20;;;2.00;;
20008;SDS011;10165;42.662;23.260;2023-12-04T05:18:04;1.67;;;1.50;;
20008;SDS011;10165;42.662;23.260;2023-12-04T05:20:32;1.60;;;1.43;;
20008;SDS011;10165;42.662;23.260;2023-12-04T05:22:59;2.70;;;1.67;;
20008;SDS011;10165;42.662;23.260;2023-12-04T05:25:26;1.97;;;1.77;;
20008;SDS011;10165;42.662;23.260;2023-12-04T05:28:03;2.53;;;1.23;;
20008;SDS011;10165;42.662;23.260;2023-12-04T05:30:34;0.87;;;0.83;;
20008;SDS011;10165;42.662;23.260;2023-12-04T05:33:01;2.93;;;2.07;;
20008;SDS011;10165;42.662;23.260;2023-12-04T05:35:29;1.73;;;1.23;;
20008;SDS011;10165;42.662;23.260;2023-12-04T05:37:59;2.43;;;1.60;;
20008;SDS011;10165;42.662;23.260;2023-12-04T05:40:27;1.30;;;1.20;;
20008;SDS011;10165;42.662;23.260;2023-12-04T05:42:54;1.40;;;1.00;;
20008;SDS011;10165;42.662;23.260;2023-12-04T05:45:22;1.80;;;1.37;;
20008;SDS011;10165;42.662;23.260;2023-12-04T05:47:49;2.20;;;1.60;;
20008;SDS011;10165;42.662;23.260;2023-12-04T05:50:16;2.63;;;1.50;;
20008;SDS011;10165;42.662;23.260;2023-12-04T05:52:45;5.23;;;2.93;;
20008;SDS011;10165;42.662;23.260;2023-12-04T05:55:12;2.03;;;1.93;;
20008;SDS011;10165;42.662;23.260;2023-12-04T05:57:40;2.07;;;1.87;;
20008;SDS011;10165;42.662;23.260;2023-12-04T06:00:14;2.20;;;1.93;;
20008;SDS011;10165;42.662;23.260;2023-12-04T06:03:20;3.03;;;1.93;;
20008;SDS011;10165;42.662;23.260;2023-12-04T06:05:52;2.27;;;2.07;;
20008;SDS011;10165;42.662;23.260;2023-12-04T06:08:30;1.83;;;1.50;;
20008;SDS011;10165;42.662;23.260;2023-12-04T06:11:03;1.40;;;1.30;;
20008;SDS011;10165;42.662;23.260;2023-12-04T06:13:42;4.03;;;2.70;;
20008;SDS011;10165;42.662;23.260;2023-12-04T06:16:37;3.40;;;3.07;;
20008;SDS011;10165;42.662;23.260;2023-12-04T06:19:09;5.13;;;3.30;;
20008;SDS011;10165;42.662;23.260;2023-12-04T06:21:40;5.10;;;3.20;;
20008;SDS011;10165;42.662;23.260;2023-12-04T06:24:13;3.17;;;2.87;;
20008;SDS011;10165;42.662;23.260;2023-12-04T06:26:44;2.33;;;2.13;;
20008;SDS011;10165;42.662;23.260;2023-12-04T06:29:21;3.30;;;2.60;;
20008;SDS011;10165;42.662;23.260;2023-12-04T06:31:54;5.07;;;3.77;;
20008;SDS011;10165;42.662;23.260;2023-12-04T06:34:25;2.53;;;2.33;;
20008;SDS011;10165;42.662;23.260;2023-12-04T06:36:56;2.83;;;2.47;;
20008;SDS011;10165;42.662;23.260;2023-12-04T06:39:31;1.67;;;1.57;;
20008;SDS011;10165;42.662;23.260;2023-12-04T06:42:04;3.23;;;2.87;;
20008;SDS011;10165;42.662;23.260;2023-12-04T06:44:36;4.57;;;1.90;;
20008;SDS011;10165;42.662;23.260;2023-12-04T06:47:08;1.40;;;1.30;;
20008;SDS011;10165;42.662;23.260;2023-12-04T06:49:43;2.50;;;2.23;;
20008;SDS011;10165;42.662;23.260;2023-12-04T06:52:18;6.63;;;2.97;;
20008;SDS011;10165;42.662;23.260;2023-12-04T06:55:14;1.53;;;1.43;;
20008;SDS011;10165;42.662;23.260;2023-12-04T06:57:45;3.40;;;1.97;;
20008;SDS011;10165;42.662;23.260;2023-12-04T07:00:18;2.30;;;2.10;;
20008;SDS011;10165;42.662;23.260;2023-12-04T07:02:53;1.30;;;1.20;;
20008;SDS011;10165;42.662;23.260;2023-12-04T07:05:25;2.20;;;1.70;;
20008;SDS011;10165;42.662;23.260;2023-12-04T07:07:57;3.00;;;1.70;;
20008;SDS011;10165;42.662;23.260;2023-12-04T07:10:28;3.33;;;2.57;;
20008;SDS011;10165;42.662;23.260;2023-12-04T07:13:02;3.37;;;2.40;;
20008;SDS011;10165;42.662;23.260;2023-12-04T07:15:35;3.17;;;1.90;;
20008;SDS011;10165;42.662;23.260;2023-12-04T07:18:06;6.40;;;1.53;;
20008;SDS011;10165;42.662;23.260;2023-12-04T07:20:38;4.13;;;2.10;;
20008;SDS011;10165;42.662;23.260;2023-12-04T07:23:10;2.47;;;1.93;;
20008;SDS011;10165;42.662;23.260;2023-12-04T07:25:41;4.63;;;2.47;;
20008;SDS011;10165;42.662;23.260;2023-12-04T07:28:13;3.27;;;2.27;;
20008;SDS011;10165;42.662;23.260;2023-12-04T07:30:44;1.80;;;1.70;;
20008;SDS011;10165;42.662;23.260;2023-12-04T07:33:15;2.43;;;2.13;;
20008;SDS011;10165;42.662;23.260;2023-12-04T07:35:47;3.27;;;2.17;;
20008;SDS011;10165;42.662;23.260;2023-12-04T07:38:20;3.40;;;1.70;;
20008;SDS011;10165;42.662;23.260;2023-12-04T07:40:55;3.50;;;2.33;;
20008;SDS011;10165;42.662;23.260;2023-12-04T07:43:24;4.13;;;2.07;;
20008;SDS011;10165;42.662;23.260;2023-12-04T07:45:56;2.73;;;1.73;;
20008;SDS011;10165;42.662;23.260;2023-12-04T07:48:30;1.73;;;1.53;;
20008;SDS011;10165;42.662;23.260;2023-12-04T07:51:01;2.00;;;1.73;;
20008;SDS011;10165;42.662;23.260;2023-12-04T07:53:35;3.47;;;2.50;;
20008;SDS011;10165;42.662;23.260;2023-12-04T07:56:12;4.00;;;2.57;;
20008;SDS011;10165;42.662;23.260;2023-12-04T07:58:47;2.70;;;2.27;;
20008;SDS011;10165;42.662;23.260;2023-12-04T08:01:16;3.50;;;2.63;;
20008;SDS011;10165;42.662;23.260;2023-12-04T08:03:55;2.13;;;1.93;;
20008;SDS011;10165;42.662;23.260;2023-12-04T08:06:27;2.50;;;1.77;;
20008;SDS011;10165;42.662;23.260;2023-12-04T08:09:01;3.90;;;2.40;;
20008;SDS011;10165;42.662;23.260;2023-12-04T08:11:30;2.80;;;1.93;;
20008;SDS011;10165;42.662;23.260;2023-12-04T08:14:04;2.10;;;1.93;;
20008;SDS011;10165;42.662;23.260;2023-12-04T08:16:42;1.97;;;1.70;;
20008;SDS011;10165;42.662;23.260;2023-12-04T08:19:18;4.57;;;1.53;;
20008;SDS011;10165;42.662;23.260;2023-12-04T08:21:50;3.10;;;1.80;;
20008;SDS011;10165;42.662;23.260;2023-12-04T08:24:21;1.80;;;1.40;;
20008;SDS011;10165;42.662;23.260;2023-12-04T08:26:56;3.43;;;2.10;;
20008;SDS011;10165;42.662;23.260;2023-12-04T08:29:27;3.20;;;2.00;;
20008;SDS011;10165;42.662;23.260;2023-12-04T08:31:58;2.70;;;1.43;;
20008;SDS011;10165;42.662;23.260;2023-12-04T08:34:31;2.30;;;1.40;;
20008;SDS011;10165;42.662;23.260;2023-12-04T08:37:04;0.93;;;0.90;;
20008;SDS011;10165;42.662;23.260;2023-12-04T08:39:36;1.50;;;1.40;;
20008;SDS011;10165;42.662;23.260;2023-12-04T08:42:08;3.03;;;1.97;;
20008;SDS011;10165;42.662;23.260;2023-12-04T08:44:50;3.50;;;1.50;;
20008;SDS011;10165;42.662;23.260;2023-12-04T08:47:27;2.13;;;1.40;;
20008;SDS011;10165;42.662;23.260;2023-12-04T08:49:57;2.33;;;1.70;;
20008;SDS011;10165;42.662;23.260;2023-12-04T08:52:32;5.83;;;2.93;;
20008;SDS011;10165;42.662;23.260;2023-12-04T08:55:27;5.37;;;1.80;;
20008;SDS011;10165;42.662;23.260;2023-12-04T08:58:00;1.50;;;1.40;;
20008;SDS011;10165;42.662;23.260;2023-12-04T09:00:33;8.90;;;4.33;;
20008;SDS011;10165;42.662;23.260;2023-12-04T09:03:12;3.03;;;2.20;;
20008;SDS011;10165;42.662;23.260;2023-12-04T09:06:08;2.77;;;1.10;;
20008;SDS011;10165;42.662;23.260;2023-12-04T09:08:42;1.23;;;1.03;;
20008;SDS011;10165;42.662;23.260;2023-12-04T09:11:34;1.93;;;1.73;;
20008;SDS011;10165;42.662;23.260;2023-12-04T09:14:10;6.23;;;1.50;;
20008;SDS011;10165;42.662;23.260;2023-12-04T09:16:42;1.37;;;1.27;;
20008;SDS011;10165;42.662;23.260;2023-12-04T09:19:16;1.30;;;1.20;;
20008;SDS011;10165;42.662;23.260;2023-12-04T09:21:52;2.57;;;1.77;;
20008;SDS011;10165;42.662;23.260;2023-12-04T09:24:38;1.60;;;1.13;;
20008;SDS011;10165;42.662;23.260;2023-12-04T09:27:10;1.93;;;1.50;;
20008;SDS011;10165;42.662;23.260;2023-12-04T09:29:41;2.97;;;1.80;;
20008;SDS011;10165;42.662;23.260;2023-12-04T09:32:17;1.10;;;1.10;;
20008;SDS011;10165;42.662;23.260;2023-12-04T09:34:54;0.87;;;0.87;;
20008;SDS011;10165;42.662;23.260;2023-12-04T09:37:27;2.87;;;1.83;;
20008;SDS011;10165;42.662;23.260;2023-12-04T09:39:57;3.27;;;1.40;;
20008;SDS011;10165;42.662;23.260;2023-12-04T09:42:30;1.40;;;1.30;;
20008;SDS011;10165;42.662;23.260;2023-12-04T09:45:05;5.27;;;2.43;;
20008;SDS011;10165;42.662;23.260;2023-12-04T09:47:36;1.70;;;1.60;;
20008;SDS011;10165;42.662;23.260;2023-12-04T09:50:12;2.10;;;1.63;;
20008;SDS011;10165;42.662;23.260;2023-12-04T09:52:46;2.17;;;1.97;;
20008;SDS011;10165;42.662;23.260;2023-12-04T09:55:25;2.97;;;1.73;;
20008;SDS011;10165;42.662;23.260;2023-12-04T09:58:05;2.50;;;1.60;;
20008;SDS011;10165;42.662;23.260;2023-12-04T10:00:43;2.27;;;2.07;;
20008;SDS011;10165;42.662;23.260;2023-12-04T10:03:23;2.30;;;2.00;;
20008;SDS011;10165;42.662;23.260;2023-12-04T10:05:55;2.33;;;2.07;;
20008;SDS011;10165;42.662;23.260;2023-12-04T10:08:27;1.40;;;1.30;;
20008;SDS011;10165;42.662;23.260;2023-12-04T10:10:59;2.80;;;2.23;;
20008;SDS011;10165;42.662;23.260;2023-12-04T10:13:30;2.37;;;2.03;;
20008;SDS011;10165;42.662;23.260;2023-12-04T10:16:32;4.93;;;2.10;;
20008;SDS011;10165;42.662;23.260;2023-12-04T10:19:26;4.73;;;3.10;;
20008;SDS011;10165;42.662;23.260;2023-12-04T10:22:01;2.87;;;1.83;;
20008;SDS011;10165;42.662;23.260;2023-12-04T10:24:34;1.97;;;1.87;;
20008;SDS011;10165;42.662;23.260;2023-12-04T10:27:09;2.47;;;1.90;;
20008;SDS011;10165;42.662;23.260;2023-12-04T10:29:47;1.53;;;1.23;;
20008;SDS011;10165;42.662;23.260;2023-12-04T10:32:20;2.87;;;1.90;;
20008;SDS011;10165;42.662;23.260;2023-12-04T10:34:52;1.40;;;1.30;;
20008;SDS011;10165;42.662;23.260;2023-12-04T10:37:31;2.13;;;1.73;;
20008;SDS011;10165;42.662;23.260;2023-12-04T10:40:06;5.00;;;2.07;;
20008;SDS011;10165;42.662;23.260;2023-12-04T10:42:39;4.10;;;2.23;;
20008;SDS011;10165;42.662;23.260;2023-12-04T10:45:37;2.70;;;1.70;;
20008;SDS011;10165;42.662;23.260;2023-12-04T10:48:09;3.47;;;2.40;;
20008;SDS011;10165;42.662;23.260;2023-12-04T10:50:42;1.73;;;1.63;;
20008;SDS011;10165;42.662;23.260;2023-12-04T10:53:14;3.10;;;2.07;;
20008;SDS011;10165;42.662;23.260;2023-12-04T10:55:45;2.63;;;1.63;;
20008;SDS011;10165;42.662;23.260;2023-12-04T10:58:24;2.47;;;2.27;;
20008;SDS011;10165;42.662;23.260;2023-12-04T11:01:04;1.93;;;1.20;;
20008;SDS011;10165;42.662;23.260;2023-12-04T11:03:47;2.60;;;1.90;;
20008;SDS011;10165;42.662;23.260;2023-12-04T11:06:23;3.40;;;2.20;;
20008;SDS011;10165;42.662;23.260;2023-12-04T11:08:56;1.43;;;1.33;;
20008;SDS011;10165;42.662;23.260;2023-12-04T11:11:33;1.90;;;1.80;;
20008;SDS011;10165;42.662;23.260;2023-12-04T11:14:10;2.30;;;2.10;;
20008;SDS011;10165;42.662;23.260;2023-12-04T11:22:37;3.30;;;1.63;;
20008;SDS011;10165;42.662;23.260;2023-12-04T11:25:09;3.23;;;2.13;;
20008;SDS011;10165;42.662;23.260;2023-12-04T11:27:43;2.03;;;1.60;;
20008;SDS011;10165;42.662;23.260;2023-12-04T11:30:19;3.50;;;1.83;;
20008;SDS011;10165;42.662;23.260;2023-12-04T11:33:01;2.53;;;2.10;;
20008;SDS011;10165;42.662;23.260;2023-12-04T11:35:30;8.97;;;3.10;;
20008;SDS011;10165;42.662;23.260;2023-12-04T11:38:04;27.90;;;10.63;;
20008;SDS011;10165;42.662;23.260;2023-12-04T11:40:36;8.83;;;4.03;;
20008;SDS011;10165;42.662;23.260;2023-12-04T11:43:20;14.90;;;7.93;;
20008;SDS011;10165;42.662;23.260;2023-12-04T11:46:10;6.63;;;2.20;;
20008;SDS011;10165;42.662;23.260;2023-12-04T11:49:26;4.90;;;3.20;;
20008;SDS011;10165;42.662;23.260;2023-12-04T11:52:03;5.63;;;3.03;;
20008;SDS011;10165;42.662;23.260;2023-12-04T11:54:59;2.40;;;2.03;;
20008;SDS011;10165;42.662;23.260;2023-12-04T11:57:39;4.50;;;2.80;;
20008;SDS011;10165;42.662;23.260;2023-12-04T12:00:54;6.67;;;3.03;;
20008;SDS011;10165;42.662;23.260;2023-12-04T12:03:27;3.53;;;2.33;;
20008;SDS011;10165;42.662;23.260;2023-12-04T12:06:06;5.73;;;2.13;;
20008;SDS011;10165;42.662;23.260;2023-12-04T12:08:37;4.53;;;2.97;;
20008;SDS011;10165;42.662;23.260;2023-12-04T12:11:09;4.73;;;3.00;;
20008;SDS011;10165;42.662;23.260;2023-12-04T12:13:42;3.60;;;2.90;;
20008;SDS011;10165;42.662;23.260;2023-12-04T12:16:17;9.43;;;3.40;;
20008;SDS011;10165;42.662;23.260;2023-12-04T12:18:50;9.07;;;3.00;;
20008;SDS011;10165;42.662;23.260;2023-12-04T12:21:25;5.00;;;2.80;;
20008;SDS011;10165;42.662;23.260;2023-12-04T12:23:55;6.73;;;3.63;;
20008;SDS011;10165;42.662;23.260;2023-12-04T12:26:28;3.13;;;2.63;;
20008;SDS011;10165;42.662;23.260;2023-12-04T12:29:03;4.67;;;2.60;;
20008;SDS011;10165;42.662;23.260;2023-12-04T12:31:38;3.63;;;2.57;;
20008;SDS011;10165;42.662;23.260;2023-12-04T12:34:09;3.73;;;2.63;;
20008;SDS011;10165;42.662;23.260;2023-12-04T12:36:43;3.77;;;2.73;;
20008;SDS011;10165;42.662;23.260;2023-12-04T12:39:24;2.27;;;2.00;;
20008;SDS011;10165;42.662;23.260;2023-12-04T12:41:58;3.43;;;2.67;;
20008;SDS011;10165;42.662;23.260;2023-12-04T12:44:40;2.37;;;1.53;;
20008;SDS011;10165;42.662;23.260;2023-12-04T12:47:27;5.90;;;2.80;;
20008;SDS011;10165;42.662;23.260;2023-12-04T12:50:00;3.77;;;3.00;;
20008;SDS011;10165;42.662;23.260;2023-12-04T12:52:37;3.47;;;2.67;;
20008;SDS011;10165;42.662;23.260;2023-12-04T12:55:23;4.83;;;2.80;;
20008;SDS011;10165;42.662;23.260;2023-12-04T12:58:05;4.27;;;3.30;;
20008;SDS011;10165;42.662;23.260;2023-12-04T13:00:39;4.27;;;2.93;;
20008;SDS011;10165;42.662;23.260;2023-12-04T13:03:14;7.57;;;3.03;;
20008;SDS011;10165;42.662;23.260;2023-12-04T13:05:47;2.87;;;2.67;;
20008;SDS011;10165;42.662;23.260;2023-12-04T13:08:19;10.53;;;3.37;;
20008;SDS011;10165;42.662;23.260;2023-12-04T13:10:51;7.10;;;3.43;;
20008;SDS011;10165;42.662;23.260;2023-12-04T13:13:25;5.77;;;3.60;;
20008;SDS011;10165;42.662;23.260;2023-12-04T13:16:31;7.10;;;3.60;;
20008;SDS011;10165;42.662;23.260;2023-12-04T13:20:10;6.97;;;4.37;;
20008;SDS011;10165;42.662;23.260;2023-12-04T13:22:42;4.77;;;3.80;;
20008;SDS011;10165;42.662;23.260;2023-12-04T13:25:13;5.97;;;3.13;;
20008;SDS011;10165;42.662;23.260;2023-12-04T13:27:46;6.63;;;3.80;;
20008;SDS011;10165;42.662;23.260;2023-12-04T13:30:25;8.03;;;4.00;;
20008;SDS011;10165;42.662;23.260;2023-12-04T13:32:55;10.07;;;4.57;;
20008;SDS011;10165;42.662;23.260;2023-12-04T13:35:25;8.00;;;4.60;;
20008;SDS011;10165;42.662;23.260;2023-12-04T13:37:56;7.77;;;3.00;;
20008;SDS011;10165;42.662;23.260;2023-12-04T13:40:31;6.97;;;3.57;;
20008;SDS011;10165;42.662;23.260;2023-12-04T13:43:07;4.37;;;2.83;;
20008;SDS011;10165;42.662;23.260;2023-12-04T13:45:59;5.97;;;3.37;;
20008;SDS011;10165;42.662;23.260;2023-12-04T13:48:30;6.30;;;3.60;;
20008;SDS011;10165;42.662;23.260;2023-12-04T13:51:00;7.97;;;3.40;;
20008;SDS011;10165;42.662;23.260;2023-12-04T13:53:32;4.43;;;3.47;;
20008;SDS011;10165;42.662;23.260;2023-12-04T13:56:07;7.40;;;4.10;;
20008;SDS011;10165;42.662;23.260;2023-12-04T13:58:41;6.93;;;4.57;;
20008;SDS011;10165;42.662;23.260;2023-12-04T14:01:25;6.97;;;4.67;;
20008;SDS011;10165;42.662;23.260;2023-12-04T14:04:01;14.40;;;5.33;;
20008;SDS011;10165;42.662;23.260;2023-12-04T14:06:34;7.50;;;5.00;;
20008;SDS011;10165;42.662;23.260;2023-12-04T14:09:04;9.60;;;4.30;;
20008;SDS011;10165;42.662;23.260;2023-12-04T14:11:46;8.13;;;4.50;;
20008;SDS011;10165;42.662;23.260;2023-12-04T14:14:21;10.83;;;4.70;;
20008;SDS011;10165;42.662;23.260;2023-12-04T14:16:54;9.83;;;5.13;;
20008;SDS011;10165;42.662;23.260;2023-12-04T14:19:33;11.10;;;6.20;;
20008;SDS011;10165;42.662;23.260;2023-12-04T14:22:54;9.27;;;4.63;;
20008;SDS011;10165;42.662;23.260;2023-12-04T14:25:32;7.67;;;4.40;;
20008;SDS011;10165;42.662;23.260;2023-12-04T14:28:05;13.43;;;4.67;;
20008;SDS011;10165;42.662;23.260;2023-12-04T14:30:36;9.30;;;4.33;;
20008;SDS011;10165;42.662;23.260;2023-12-04T14:33:08;10.23;;;4.60;;
20008;SDS011;10165;42.662;23.260;2023-12-04T14:35:43;10.63;;;4.83;;
20008;SDS011;10165;42.662;23.260;2023-12-04T14:38:23;8.10;;;4.53;;
20008;SDS011;10165;42.662;23.260;2023-12-04T14:40:55;6.93;;;4.07;;
20008;SDS011;10165;42.662;23.260;2023-12-04T14:43:28;8.47;;;5.23;;
20008;SDS011;10165;42.662;23.260;2023-12-04T14:46:15;12.80;;;6.87;;
20008;SDS011;10165;42.662;23.260;2023-12-04T14:48:52;12.63;;;8.77;;
20008;SDS011;10165;42.662;23.260;2023-12-04T14:51:26;14.60;;;8.13;;
20008;SDS011;10165;42.662;23.260;2023-12-04T14:54:01;11.40;;;7.90;;
20008;SDS011;10165;42.662;23.260;2023-12-04T14:56:50;15.43;;;7.60;;
20008;SDS011;10165;42.662;23.260;2023-12-04T14:59:42;12.13;;;6.20;;
20008;SDS011;10165;42.662;23.260;2023-12-04T15:02:28;16.23;;;6.67;;
20008;SDS011;10165;42.662;23.260;2023-12-04T15:05:03;12.33;;;5.80;;
20008;SDS011;10165;42.662;23.260;2023-12-04T15:07:37;8.40;;;4.50;;
20008;SDS011;10165;42.662;23.260;2023-12-04T15:10:23;7.57;;;5.77;;
20008;SDS011;10165;42.662;23.260;2023-12-04T15:13:01;12.47;;;4.70;;
20008;SDS011;10165;42.662;23.260;2023-12-04T15:15:41;9.03;;;5.73;;
20008;SDS011;10165;42.662;23.260;2023-12-04T15:18:31;10.83;;;4.70;;
20008;SDS011;10165;42.662;23.260;2023-12-04T15:21:39;17.07;;;5.00;;
20008;SDS011;10165;42.662;23.260;2023-12-04T17:35:57;11.83;;;5.83;;
20008;SDS011;10165;42.662;23.260;2023-12-04T17:38:42;17.00;;;7.10;;